Kezdőlap
METAR-TAF:

METAR-TAF

Repülőterek :

Stockholm-Arlanda repülőtér

Stockholm-Arlanda, Svédország

földrajzi szélesség: 59-39N, földrajzi hosszúság: 017-57E, magasság: 38 m

Jelenlegi meteorológiai megfigyelések

A jelentés 28 perccel ezelõtt készült, 14:20 UTC
Dél-délkeleti szél 11 kt
Hőmérséklet 31°C
Páratartalom 26%
Légköri nyomás 1014 hPa
Látótávolság 10 km, vagy több
felhőtlen 1500 m magasságban, és nincs gomolyfelhõ

METAR: ESSA 161420Z 15011KT CAVOK 31/09 Q1014 NOSIG

Idő: 16:48 (14:48 UTC)

Előrejelzés

A jelentés 57 perccel ezelõtt készült, 13:51 UTC
Az előrejelzés 16-én 13 óra UTC és 17-én 12 óra UTC között érvényes
Délkeleti szél 8 kt
Látótávolság 10 km, vagy több
felhőtlen 1500 m magasságban, és nincs gomolyfelhõ

TAF: ESSA 161351Z 1613/1712 13008KT CAVOK

Meteorológiai megfigyelések és előrejelzések több, mint 4000 repülőtéren (METAR és TAF jelentéseket).

A térképen piros és sárga pontok jelzik az elérhető meteorológiai állomásokat.

Mozgassa az egeret a pont fölött, hogy megjelenjen az állomás neve.

Azután kattintson az időjárási megfigyelések és előrejelzések megtekintéséhez.

A térkép megváltoztatása: kattintson a fekete keresztel jelölt zöld gombra ráközelítéshez, a vonallal jelölt zöld gombra távolításhoz, vagy a zöld nyilakra a szomszédos térképek eléréséhez.


METAR-TAF: